Hungry Horse, MT

3:40 AM MDT on May 23, 2015 (GMT -0600)
8th St. W Hungry Horse | | Change Station
CLOSE
Current Station
Personal Weather Station
Location: Hungry Horse, MT
Elevation: 3114 ft
Nearby Weather Stations

Elev 3114 ft 48.39 °N, 114.08 °W | Updated 6 seconds ago

Clear
Clear
45.5 °F
Feels Like 46 °F
N
1.6
Wind Variable Wind from East
Gusts 3.1 mph

Today
High -- | Low -- °F
--% Chance of Precip.
Yesterday
High -- | Low -- °F
Precip. -- in
5:47 AM 9:19 PM
Waxing Crescent, 28% visible
Pressure 30.01 in
Visibility 10.0 miles
Clouds Few 6500 ft
Windchill 46 °F
Dew Point 39 °F
Humidity 79%
Rainfall 0.00 in
Snow Depth Not available.
UV 0 out of 12
Pollen 9.00 out of 12
Air Quality Not available.
Flu Activity Sporadic
METAR KCTB 230856Z AUTO 35005KT 10SM FEW065 06/02 A3004 RMK AO2 SLP162 T00610022 51009

More Conditions Fewer Conditions

Pressure 30.01 in
Visibility 10.0 miles
Clouds Few 6500 ft
Windchill 46 °F
Dew Point 39 °F
Humidity 79%
Rainfall 0.00 in
Snow Depth Not available.
UV 0 out of 12
Pollen 9.00 out of 12
Air Quality Not available.
Flu Activity Sporadic
METAR KCTB 230856Z AUTO 35005KT 10SM FEW065 06/02 A3004 RMK AO2 SLP162 T00610022 51009

More Conditions Fewer Conditions

10-Day Weather Forecast

Almanac

Astronomy

May. 23, 2015 Rise Set
Actual Time
Civil Twilight
Nautical Twilight
Astronomical Twilight
Moon
Length of Visible Light
Length of Day
Tomorrow will be .
, % of the Moon is Illuminated

Today's Extremes

State Highs State Lows

Community

WunderPhotos

Upload Photos

1,823,405 photos uploaded!

WunderBlogs® & News

Nearby

Air Quality

  Air Quality AQ Index Pollutant
Not available.

Snow Depth

Station Depth Elevation

Earthquake Activity

City Distance Mag. Time & Date
Minimum magnitude displayed is 2.5.

Coastal Water Temperatures

Place Temperature

Stations

Nearby Weather Stations

Station Location Temp. Windchill Dew Point Humidity Wind Precip. Elev Updated Type